sensor_id;sensor_type;location;lat;lon;timestamp;pressure;altitude;pressure_sealevel;temperature;humidity
44140;BME280;29803;51.048;4.686;2023-04-21T00:00:56;101383.19;;;7.10;100.00
44140;BME280;29803;51.048;4.686;2023-04-21T00:03:28;101381.38;;;7.10;100.00
44140;BME280;29803;51.048;4.686;2023-04-21T00:05:59;101379.53;;;7.11;100.00
44140;BME280;29803;51.048;4.686;2023-04-21T00:08:30;101375.88;;;7.12;100.00
44140;BME280;29803;51.048;4.686;2023-04-21T00:11:01;101371.41;;;7.12;100.00
44140;BME280;29803;51.048;4.686;2023-04-21T00:13:33;101369.00;;;7.09;100.00
44140;BME280;29803;51.048;4.686;2023-04-21T00:16:04;101365.63;;;7.07;100.00
44140;BME280;29803;51.048;4.686;2023-04-21T00:18:34;101357.59;;;7.07;100.00
44140;BME280;29803;51.048;4.686;2023-04-21T00:21:05;101363.69;;;7.09;100.00
44140;BME280;29803;51.048;4.686;2023-04-21T00:23:35;101356.50;;;7.10;100.00
44140;BME280;29803;51.048;4.686;2023-04-21T00:26:06;101354.25;;;7.05;100.00
44140;BME280;29803;51.048;4.686;2023-04-21T00:28:36;101352.66;;;7.03;100.00
44140;BME280;29803;51.048;4.686;2023-04-21T00:31:07;101349.16;;;7.02;100.00
44140;BME280;29803;51.048;4.686;2023-04-21T00:33:37;101359.25;;;6.98;100.00
44140;BME280;29803;51.048;4.686;2023-04-21T00:36:08;101361.09;;;6.98;100.00
44140;BME280;29803;51.048;4.686;2023-04-21T00:38:38;101353.09;;;6.98;100.00
44140;BME280;29803;51.048;4.686;2023-04-21T00:41:09;101346.16;;;6.95;100.00
44140;BME280;29803;51.048;4.686;2023-04-21T00:43:58;101353.47;;;6.93;100.00
44140;BME280;29803;51.048;4.686;2023-04-21T00:46:29;101349.09;;;6.92;100.00
44140;BME280;29803;51.048;4.686;2023-04-21T00:49:02;101360.50;;;6.94;100.00
44140;BME280;29803;51.048;4.686;2023-04-21T00:51:34;101349.81;;;6.94;100.00
44140;BME280;29803;51.048;4.686;2023-04-21T00:54:06;101353.19;;;6.96;100.00
44140;BME280;29803;51.048;4.686;2023-04-21T00:56:37;101355.84;;;6.96;100.00
44140;BME280;29803;51.048;4.686;2023-04-21T00:59:07;101352.50;;;6.94;100.00
44140;BME280;29803;51.048;4.686;2023-04-21T01:01:38;101351.91;;;6.91;100.00
44140;BME280;29803;51.048;4.686;2023-04-21T01:04:09;101350.47;;;6.87;100.00
44140;BME280;29803;51.048;4.686;2023-04-21T01:06:40;101348.91;;;6.84;100.00
44140;BME280;29803;51.048;4.686;2023-04-21T01:09:11;101344.81;;;6.80;100.00
44140;BME280;29803;51.048;4.686;2023-04-21T01:11:59;101354.78;;;6.78;100.00
44140;BME280;29803;51.048;4.686;2023-04-21T01:14:31;101344.34;;;6.75;100.00
44140;BME280;29803;51.048;4.686;2023-04-21T01:17:02;101348.97;;;6.73;100.00
44140;BME280;29803;51.048;4.686;2023-04-21T01:19:37;101352.34;;;6.75;100.00
44140;BME280;29803;51.048;4.686;2023-04-21T01:22:10;101348.97;;;6.73;100.00
44140;BME280;29803;51.048;4.686;2023-04-21T01:24:43;101354.56;;;6.70;100.00
44140;BME280;29803;51.048;4.686;2023-04-21T01:27:17;101352.72;;;6.70;100.00
44140;BME280;29803;51.048;4.686;2023-04-21T01:29:49;101349.22;;;6.70;100.00
44140;BME280;29803;51.048;4.686;2023-04-21T01:32:24;101348.38;;;6.69;100.00
44140;BME280;29803;51.048;4.686;2023-04-21T01:34:56;101346.81;;;6.67;100.00
44140;BME280;29803;51.048;4.686;2023-04-21T01:37:29;101348.06;;;6.63;100.00
44140;BME280;29803;51.048;4.686;2023-04-21T01:40:06;101343.69;;;6.62;100.00
44140;BME280;29803;51.048;4.686;2023-04-21T01:42:39;101342.97;;;6.60;100.00
44140;BME280;29803;51.048;4.686;2023-04-21T01:45:13;101342.97;;;6.60;100.00
44140;BME280;29803;51.048;4.686;2023-04-21T01:47:44;101339.59;;;6.58;100.00
44140;BME280;29803;51.048;4.686;2023-04-21T01:50:14;101339.72;;;6.56;100.00
44140;BME280;29803;51.048;4.686;2023-04-21T01:52:54;101338.03;;;6.55;100.00
44140;BME280;29803;51.048;4.686;2023-04-21T01:55:39;101336.19;;;6.56;100.00
44140;BME280;29803;51.048;4.686;2023-04-21T01:58:11;101333.66;;;6.54;100.00
44140;BME280;29803;51.048;4.686;2023-04-21T02:00:41;101337.19;;;6.55;100.00
44140;BME280;29803;51.048;4.686;2023-04-21T02:03:12;101334.38;;;6.56;100.00
44140;BME280;29803;51.048;4.686;2023-04-21T02:05:42;101336.34;;;6.54;100.00
44140;BME280;29803;51.048;4.686;2023-04-21T02:08:13;101343.59;;;6.52;100.00
44140;BME280;29803;51.048;4.686;2023-04-21T02:10:44;101334.75;;;6.52;100.00
44140;BME280;29803;51.048;4.686;2023-04-21T02:13:14;101338.03;;;6.55;100.00
44140;BME280;29803;51.048;4.686;2023-04-21T02:15:45;101331.00;;;6.54;100.00
44140;BME280;29803;51.048;4.686;2023-04-21T02:18:15;101333.66;;;6.54;100.00
44140;BME280;29803;51.048;4.686;2023-04-21T02:20:46;101331.00;;;6.54;100.00
44140;BME280;29803;51.048;4.686;2023-04-21T02:23:17;101336.59;;;6.51;100.00
44140;BME280;29803;51.048;4.686;2023-04-21T02:25:47;101326.75;;;6.52;100.00
44140;BME280;29803;51.048;4.686;2023-04-21T02:28:18;101324.22;;;6.50;100.00
44140;BME280;29803;51.048;4.686;2023-04-21T02:30:48;101320.00;;;6.47;100.00
44140;BME280;29803;51.048;4.686;2023-04-21T02:33:19;101322.66;;;6.47;100.00
44140;BME280;29803;51.048;4.686;2023-04-21T02:35:49;101327.03;;;6.48;100.00
44140;BME280;29803;51.048;4.686;2023-04-21T02:38:20;101313.81;;;6.47;100.00
44140;BME280;29803;51.048;4.686;2023-04-21T02:40:50;101305.56;;;6.50;100.00
44140;BME280;29803;51.048;4.686;2023-04-21T02:43:21;101299.41;;;6.49;100.00
44140;BME280;29803;51.048;4.686;2023-04-21T02:45:51;101300.25;;;6.50;100.00
44140;BME280;29803;51.048;4.686;2023-04-21T02:48:22;101289.34;;;6.53;100.00
44140;BME280;29803;51.048;4.686;2023-04-21T02:50:52;101295.63;;;6.52;100.00
44140;BME280;29803;51.048;4.686;2023-04-21T02:53:23;101298.56;;;6.49;100.00
44140;BME280;29803;51.048;4.686;2023-04-21T02:55:53;101299.53;;;6.48;100.00
44140;BME280;29803;51.048;4.686;2023-04-21T02:58:24;101288.88;;;6.48;100.00
44140;BME280;29803;51.048;4.686;2023-04-21T03:00:55;101288.00;;;6.47;100.00
44140;BME280;29803;51.048;4.686;2023-04-21T03:03:26;101284.63;;;6.45;100.00
44140;BME280;29803;51.048;4.686;2023-04-21T03:05:58;101292.88;;;6.42;100.00
44140;BME280;29803;51.048;4.686;2023-04-21T03:08:29;101292.88;;;6.42;100.00
44140;BME280;29803;51.048;4.686;2023-04-21T03:11:00;101286.97;;;6.39;100.00
44140;BME280;29803;51.048;4.686;2023-04-21T03:13:30;101284.19;;;6.40;100.00
44140;BME280;29803;51.048;4.686;2023-04-21T03:16:01;101281.66;;;6.39;100.00
44140;BME280;29803;51.048;4.686;2023-04-21T03:18:33;101286.69;;;6.42;100.00
44140;BME280;29803;51.048;4.686;2023-04-21T03:21:05;101287.44;;;6.44;100.00
44140;BME280;29803;51.048;4.686;2023-04-21T03:23:35;101287.44;;;6.44;100.00
44140;BME280;29803;51.048;4.686;2023-04-21T03:26:07;101285.63;;;6.44;100.00
44140;BME280;29803;51.048;4.686;2023-04-21T03:28:37;101286.59;;;6.43;100.00
44140;BME280;29803;51.048;4.686;2023-04-21T03:31:08;101282.22;;;6.42;100.00
44140;BME280;29803;51.048;4.686;2023-04-21T03:33:38;101277.75;;;6.43;100.00
44140;BME280;29803;51.048;4.686;2023-04-21T03:36:09;101287.53;;;6.42;100.00
44140;BME280;29803;51.048;4.686;2023-04-21T03:38:40;101274.50;;;6.39;100.00
44140;BME280;29803;51.048;4.686;2023-04-21T03:41:10;101282.03;;;6.34;100.00
44140;BME280;29803;51.048;4.686;2023-04-21T03:43:41;101275.97;;;6.32;100.00
44140;BME280;29803;51.048;4.686;2023-04-21T03:46:30;101275.97;;;6.32;100.00
44140;BME280;29803;51.048;4.686;2023-04-21T03:49:01;101274.28;;;6.31;100.00
44140;BME280;29803;51.048;4.686;2023-04-21T03:51:31;101277.94;;;6.30;100.00
44140;BME280;29803;51.048;4.686;2023-04-21T03:54:02;101273.28;;;6.32;100.00
44140;BME280;29803;51.048;4.686;2023-04-21T03:56:32;101260.72;;;6.34;100.00
44140;BME280;29803;51.048;4.686;2023-04-21T03:59:03;101264.59;;;6.30;100.00
44140;BME280;29803;51.048;4.686;2023-04-21T04:01:34;101251.53;;;6.27;100.00
44140;BME280;29803;51.048;4.686;2023-04-21T04:04:05;101259.94;;;6.22;100.00
44140;BME280;29803;51.048;4.686;2023-04-21T04:06:36;101247.47;;;6.12;100.00
44140;BME280;29803;51.048;4.686;2023-04-21T04:09:06;101251.78;;;6.03;100.00
44140;BME280;29803;51.048;4.686;2023-04-21T04:11:38;101249.72;;;5.95;100.00
44140;BME280;29803;51.048;4.686;2023-04-21T04:14:08;101252.88;;;5.89;100.00
44140;BME280;29803;51.048;4.686;2023-04-21T04:16:39;101255.31;;;5.81;100.00
44140;BME280;29803;51.048;4.686;2023-04-21T04:19:10;101243.47;;;5.74;100.00
44140;BME280;29803;51.048;4.686;2023-04-21T04:21:41;101245.34;;;5.62;100.00
44140;BME280;29803;51.048;4.686;2023-04-21T04:24:11;101244.97;;;5.56;100.00
44140;BME280;29803;51.048;4.686;2023-04-21T04:26:43;101244.75;;;5.48;100.00
44140;BME280;29803;51.048;4.686;2023-04-21T04:29:14;101245.34;;;5.40;100.00
44140;BME280;29803;51.048;4.686;2023-04-21T04:31:45;101240.75;;;5.31;100.00
44140;BME280;29803;51.048;4.686;2023-04-21T04:34:16;101251.06;;;5.24;100.00
44140;BME280;29803;51.048;4.686;2023-04-21T04:36:47;101259.03;;;5.24;100.00
44140;BME280;29803;51.048;4.686;2023-04-21T04:39:19;101264.34;;;5.24;100.00
44140;BME280;29803;51.048;4.686;2023-04-21T04:41:51;101262.53;;;5.25;100.00
44140;BME280;29803;51.048;4.686;2023-04-21T04:44:21;101257.69;;;5.30;100.00
44140;BME280;29803;51.048;4.686;2023-04-21T04:46:52;101266.03;;;5.36;100.00
44140;BME280;29803;51.048;4.686;2023-04-21T04:49:24;101270.00;;;5.42;100.00
44140;BME280;29803;51.048;4.686;2023-04-21T04:51:55;101278.38;;;5.49;100.00
44140;BME280;29803;51.048;4.686;2023-04-21T04:54:25;101273.53;;;5.54;100.00
44140;BME280;29803;51.048;4.686;2023-04-21T04:56:58;101275.91;;;5.57;100.00
44140;BME280;29803;51.048;4.686;2023-04-21T04:59:29;101277.75;;;5.56;100.00
44140;BME280;29803;51.048;4.686;2023-04-21T05:02:00;101277.25;;;5.51;100.00
44140;BME280;29803;51.048;4.686;2023-04-21T05:04:30;101290.00;;;5.48;100.00
44140;BME280;29803;51.048;4.686;2023-04-21T05:07:05;101288.41;;;5.45;100.00
44140;BME280;29803;51.048;4.686;2023-04-21T05:09:37;101290.47;;;5.41;100.00
44140;BME280;29803;51.048;4.686;2023-04-21T05:12:07;101294.84;;;5.42;100.00
44140;BME280;29803;51.048;4.686;2023-04-21T05:14:38;101291.56;;;5.39;100.00
44140;BME280;29803;51.048;4.686;2023-04-21T05:17:08;101287.44;;;5.35;100.00
44140;BME280;29803;51.048;4.686;2023-04-21T05:19:39;101294.81;;;5.31;100.00
44140;BME280;29803;51.048;4.686;2023-04-21T05:22:09;101301.38;;;5.38;100.00
44140;BME280;29803;51.048;4.686;2023-04-21T05:24:40;101305.47;;;5.42;100.00
44140;BME280;29803;51.048;4.686;2023-04-21T05:27:12;101304.97;;;5.49;100.00
44140;BME280;29803;51.048;4.686;2023-04-21T05:29:42;101308.13;;;5.54;100.00
44140;BME280;29803;51.048;4.686;2023-04-21T05:32:13;101304.97;;;5.60;100.00
44140;BME280;29803;51.048;4.686;2023-04-21T05:34:44;101300.97;;;5.65;100.00
44140;BME280;29803;51.048;4.686;2023-04-21T05:37:15;101309.56;;;5.69;100.00
44140;BME280;29803;51.048;4.686;2023-04-21T05:39:45;101303.72;;;5.75;100.00
44140;BME280;29803;51.048;4.686;2023-04-21T05:42:16;101294.41;;;5.81;100.00
44140;BME280;29803;51.048;4.686;2023-04-21T05:44:47;101294.88;;;5.86;100.00
44140;BME280;29803;51.048;4.686;2023-04-21T05:47:18;101303.97;;;5.94;100.00
44140;BME280;29803;51.048;4.686;2023-04-21T05:50:05;101303.03;;;6.16;100.00
44140;BME280;29803;51.048;4.686;2023-04-21T05:52:35;101306.03;;;6.55;100.00
44140;BME280;29803;51.048;4.686;2023-04-21T05:55:06;101300.88;;;7.05;100.00
44140;BME280;29803;51.048;4.686;2023-04-21T05:57:37;101304.47;;;7.56;100.00
44140;BME280;29803;51.048;4.686;2023-04-21T06:00:08;101300.91;;;7.86;100.00
44140;BME280;29803;51.048;4.686;2023-04-21T06:02:38;101296.16;;;8.18;100.00
44140;BME280;29803;51.048;4.686;2023-04-21T06:05:09;101293.66;;;8.55;100.00
44140;BME280;29803;51.048;4.686;2023-04-21T06:07:39;101298.41;;;8.81;100.00
44140;BME280;29803;51.048;4.686;2023-04-21T06:10:12;101282.13;;;9.12;100.00
44140;BME280;29803;51.048;4.686;2023-04-21T06:12:43;101283.84;;;9.40;100.00
44140;BME280;29803;51.048;4.686;2023-04-21T06:15:13;101267.41;;;9.53;100.00
44140;BME280;29803;51.048;4.686;2023-04-21T06:17:44;101273.50;;;9.73;100.00
44140;BME280;29803;51.048;4.686;2023-04-21T06:20:14;101274.00;;;10.04;100.00
44140;BME280;29803;51.048;4.686;2023-04-21T06:22:46;101275.56;;;10.06;100.00
44140;BME280;29803;51.048;4.686;2023-04-21T06:25:17;101265.97;;;10.22;100.00
44140;BME280;29803;51.048;4.686;2023-04-21T06:27:48;101276.16;;;10.00;100.00
44140;BME280;29803;51.048;4.686;2023-04-21T06:30:18;101272.50;;;10.37;100.00
44140;BME280;29803;51.048;4.686;2023-04-21T06:32:49;101268.59;;;10.49;100.00
44140;BME280;29803;51.048;4.686;2023-04-21T06:35:19;101275.84;;;11.01;100.00
44140;BME280;29803;51.048;4.686;2023-04-21T06:37:53;101279.50;;;11.26;100.00
44140;BME280;29803;51.048;4.686;2023-04-21T06:40:24;101278.69;;;11.33;100.00
44140;BME280;29803;51.048;4.686;2023-04-21T06:42:54;101285.97;;;11.49;100.00
44140;BME280;29803;51.048;4.686;2023-04-21T06:45:25;101280.53;;;11.33;100.00
44140;BME280;29803;51.048;4.686;2023-04-21T06:47:55;101278.31;;;11.62;100.00
44140;BME280;29803;51.048;4.686;2023-04-21T06:50:26;101282.00;;;12.12;100.00
44140;BME280;29803;51.048;4.686;2023-04-21T06:52:56;101278.16;;;12.31;100.00
44140;BME280;29803;51.048;4.686;2023-04-21T06:55:27;101276.28;;;12.23;100.00
44140;BME280;29803;51.048;4.686;2023-04-21T06:57:57;101274.97;;;12.27;100.00
44140;BME280;29803;51.048;4.686;2023-04-21T07:00:28;101278.16;;;12.39;100.00
44140;BME280;29803;51.048;4.686;2023-04-21T07:02:58;101265.06;;;12.60;100.00
44140;BME280;29803;51.048;4.686;2023-04-21T07:05:29;101268.72;;;12.18;100.00
44140;BME280;29803;51.048;4.686;2023-04-21T07:07:59;101270.53;;;11.93;100.00
44140;BME280;29803;51.048;4.686;2023-04-21T07:10:30;101264.88;;;12.21;100.00
44140;BME280;29803;51.048;4.686;2023-04-21T07:13:01;101266.41;;;12.40;100.00
44140;BME280;29803;51.048;4.686;2023-04-21T07:15:31;101260.47;;;12.04;100.00
44140;BME280;29803;51.048;4.686;2023-04-21T07:18:02;101272.09;;;12.12;100.00
44140;BME280;29803;51.048;4.686;2023-04-21T07:20:33;101270.59;;;12.75;100.00
44140;BME280;29803;51.048;4.686;2023-04-21T07:23:03;101269.06;;;12.81;100.00
44140;BME280;29803;51.048;4.686;2023-04-21T07:25:34;101280.63;;;13.06;100.00
44140;BME280;29803;51.048;4.686;2023-04-21T07:28:04;101275.88;;;13.24;100.00
44140;BME280;29803;51.048;4.686;2023-04-21T07:30:36;101278.06;;;13.20;100.00
44140;BME280;29803;51.048;4.686;2023-04-21T07:33:06;101279.13;;;13.03;100.00
44140;BME280;29803;51.048;4.686;2023-04-21T07:35:38;101262.81;;;12.88;100.00
44140;BME280;29803;51.048;4.686;2023-04-21T07:38:08;101282.44;;;13.13;100.00
44140;BME280;29803;51.048;4.686;2023-04-21T07:40:39;101277.72;;;13.32;100.00
44140;BME280;29803;51.048;4.686;2023-04-21T07:43:09;101278.03;;;13.37;100.00
44140;BME280;29803;51.048;4.686;2023-04-21T07:45:40;101278.88;;;13.45;100.00
44140;BME280;29803;51.048;4.686;2023-04-21T07:48:13;101277.75;;;13.63;100.00
44140;BME280;29803;51.048;4.686;2023-04-21T07:50:45;101272.06;;;13.89;100.00
44140;BME280;29803;51.048;4.686;2023-04-21T07:53:15;101272.72;;;13.60;100.00
44140;BME280;29803;51.048;4.686;2023-04-21T07:55:45;101276.84;;;13.79;100.00
44140;BME280;29803;51.048;4.686;2023-04-21T07:58:16;101273.97;;;14.11;100.00
44140;BME280;29803;51.048;4.686;2023-04-21T08:00:47;101268.72;;;14.56;100.00
44140;BME280;29803;51.048;4.686;2023-04-21T08:03:18;101263.66;;;14.75;100.00
44140;BME280;29803;51.048;4.686;2023-04-21T08:05:48;101267.03;;;14.77;100.00
44140;BME280;29803;51.048;4.686;2023-04-21T08:08:19;101262.41;;;15.01;100.00
44140;BME280;29803;51.048;4.686;2023-04-21T08:10:51;101258.50;;;14.66;100.00
44140;BME280;29803;51.048;4.686;2023-04-21T08:13:21;101260.91;;;14.61;100.00
44140;BME280;29803;51.048;4.686;2023-04-21T08:15:54;101251.19;;;14.74;100.00
44140;BME280;29803;51.048;4.686;2023-04-21T08:18:25;101245.16;;;14.87;100.00
44140;BME280;29803;51.048;4.686;2023-04-21T08:20:55;101244.69;;;14.98;100.00
44140;BME280;29803;51.048;4.686;2023-04-21T08:23:27;101240.22;;;14.76;100.00
44140;BME280;29803;51.048;4.686;2023-04-21T08:26:01;101246.44;;;14.62;100.00
44140;BME280;29803;51.048;4.686;2023-04-21T08:28:32;101248.75;;;14.65;100.00
44140;BME280;29803;51.048;4.686;2023-04-21T08:31:02;101249.75;;;14.64;100.00
44140;BME280;29803;51.048;4.686;2023-04-21T08:33:34;101253.44;;;15.00;100.00
44140;BME280;29803;51.048;4.686;2023-04-21T08:36:04;101255.50;;;15.72;100.00
44140;BME280;29803;51.048;4.686;2023-04-21T08:38:37;101249.91;;;15.44;100.00
44140;BME280;29803;51.048;4.686;2023-04-21T08:41:08;101252.28;;;14.65;100.00
44140;BME280;29803;51.048;4.686;2023-04-21T08:43:38;101255.59;;;15.35;100.00
44140;BME280;29803;51.048;4.686;2023-04-21T08:46:09;101245.00;;;16.05;100.00
44140;BME280;29803;51.048;4.686;2023-04-21T08:48:39;101246.50;;;15.87;100.00
44140;BME280;29803;51.048;4.686;2023-04-21T08:51:10;101242.66;;;15.81;100.00
44140;BME280;29803;51.048;4.686;2023-04-21T08:53:43;101237.41;;;15.94;100.00
44140;BME280;29803;51.048;4.686;2023-04-21T08:56:15;101243.78;;;16.51;100.00
44140;BME280;29803;51.048;4.686;2023-04-21T08:58:46;101236.00;;;16.69;100.00
44140;BME280;29803;51.048;4.686;2023-04-21T09:01:16;101236.31;;;17.09;100.00
44140;BME280;29803;51.048;4.686;2023-04-21T09:03:47;101242.00;;;17.21;100.00
44140;BME280;29803;51.048;4.686;2023-04-21T09:06:17;101237.81;;;16.83;100.00
44140;BME280;29803;51.048;4.686;2023-04-21T09:09:06;101242.66;;;17.23;100.00
44140;BME280;29803;51.048;4.686;2023-04-21T09:11:37;101243.88;;;17.20;100.00
44140;BME280;29803;51.048;4.686;2023-04-21T09:14:07;101241.53;;;16.33;100.00
44140;BME280;29803;51.048;4.686;2023-04-21T09:16:39;101235.69;;;16.29;100.00
44140;BME280;29803;51.048;4.686;2023-04-21T09:19:14;101236.91;;;16.76;100.00
44140;BME280;29803;51.048;4.686;2023-04-21T09:21:45;101244.06;;;17.12;100.00
44140;BME280;29803;51.048;4.686;2023-04-21T09:24:15;101229.72;;;16.41;100.00
44140;BME280;29803;51.048;4.686;2023-04-21T09:27:02;101236.44;;;16.45;100.00
44140;BME280;29803;51.048;4.686;2023-04-21T09:29:33;101228.84;;;16.62;100.00
44140;BME280;29803;51.048;4.686;2023-04-21T09:32:04;101226.13;;;16.83;100.00
44140;BME280;29803;51.048;4.686;2023-04-21T09:34:40;101240.59;;;17.31;100.00
44140;BME280;29803;51.048;4.686;2023-04-21T09:37:13;101233.97;;;17.41;100.00
44140;BME280;29803;51.048;4.686;2023-04-21T09:39:45;101234.84;;;17.48;100.00
44140;BME280;29803;51.048;4.686;2023-04-21T09:42:16;101230.38;;;17.75;100.00
44140;BME280;29803;51.048;4.686;2023-04-21T09:44:46;101221.84;;;17.84;100.00
44140;BME280;29803;51.048;4.686;2023-04-21T09:47:17;101208.59;;;17.61;100.00
44140;BME280;29803;51.048;4.686;2023-04-21T09:49:51;101217.03;;;17.80;100.00
44140;BME280;29803;51.048;4.686;2023-04-21T09:52:22;101209.38;;;18.03;100.00
44140;BME280;29803;51.048;4.686;2023-04-21T09:54:57;101205.59;;;18.57;100.00
44140;BME280;29803;51.048;4.686;2023-04-21T09:57:30;101204.38;;;18.53;100.00
44140;BME280;29803;51.048;4.686;2023-04-21T10:00:06;101197.25;;;18.72;100.00
44140;BME280;29803;51.048;4.686;2023-04-21T10:02:50;101186.38;;;18.66;100.00
44140;BME280;29803;51.048;4.686;2023-04-21T10:05:22;101185.13;;;18.42;100.00
44140;BME280;29803;51.048;4.686;2023-04-21T10:07:54;101174.25;;;17.95;100.00
44140;BME280;29803;51.048;4.686;2023-04-21T10:10:27;101185.50;;;17.85;100.00
44140;BME280;29803;51.048;4.686;2023-04-21T10:12:58;101175.53;;;17.99;100.00
44140;BME280;29803;51.048;4.686;2023-04-21T10:15:39;101175.09;;;18.16;100.00
44140;BME280;29803;51.048;4.686;2023-04-21T10:18:29;101183.97;;;17.63;100.00
44140;BME280;29803;51.048;4.686;2023-04-21T10:26:33;101167.81;;;17.42;100.00
44140;BME280;29803;51.048;4.686;2023-04-21T10:29:04;101163.38;;;17.75;100.00
44140;BME280;29803;51.048;4.686;2023-04-21T10:31:50;101161.91;;;17.79;100.00
44140;BME280;29803;51.048;4.686;2023-04-21T10:34:37;101164.47;;;17.33;100.00
44140;BME280;29803;51.048;4.686;2023-04-21T10:37:09;101144.44;;;17.34;100.00
44140;BME280;29803;51.048;4.686;2023-04-21T10:39:44;101157.31;;;17.19;100.00
44140;BME280;29803;51.048;4.686;2023-04-21T10:47:39;101137.78;;;17.37;100.00
44140;BME280;29803;51.048;4.686;2023-04-21T10:50:29;101134.44;;;17.41;100.00
44140;BME280;29803;51.048;4.686;2023-04-21T10:53:19;101129.44;;;17.38;100.00
44140;BME280;29803;51.048;4.686;2023-04-21T10:55:54;101130.94;;;17.47;100.00
44140;BME280;29803;51.048;4.686;2023-04-21T10:58:26;101113.66;;;17.68;100.00
44140;BME280;29803;51.048;4.686;2023-04-21T11:00:57;101125.09;;;17.44;100.00
44140;BME280;29803;51.048;4.686;2023-04-21T11:03:33;101119.53;;;17.11;100.00
44140;BME280;29803;51.048;4.686;2023-04-21T11:06:17;101110.69;;;17.43;100.00
44140;BME280;29803;51.048;4.686;2023-04-21T11:09:06;101104.88;;;17.53;100.00
44140;BME280;29803;51.048;4.686;2023-04-21T11:11:36;101101.94;;;17.54;100.00
44140;BME280;29803;51.048;4.686;2023-04-21T11:14:07;101089.56;;;17.19;100.00
44140;BME280;29803;51.048;4.686;2023-04-21T11:16:41;101094.41;;;17.50;100.00
44140;BME280;29803;51.048;4.686;2023-04-21T11:19:14;101086.16;;;17.78;100.00
44140;BME280;29803;51.048;4.686;2023-04-21T11:24:33;101074.47;;;17.84;100.00
44140;BME280;29803;51.048;4.686;2023-04-21T11:27:07;101060.44;;;18.07;100.00
44140;BME280;29803;51.048;4.686;2023-04-21T11:29:37;101070.22;;;17.55;100.00
44140;BME280;29803;51.048;4.686;2023-04-21T11:32:08;101063.19;;;17.74;100.00
44140;BME280;29803;51.048;4.686;2023-04-21T11:34:39;101062.34;;;17.80;100.00
44140;BME280;29803;51.048;4.686;2023-04-21T11:37:16;101063.13;;;17.60;100.00
44140;BME280;29803;51.048;4.686;2023-04-21T11:39:55;101058.81;;;17.79;100.00
44140;BME280;29803;51.048;4.686;2023-04-21T11:42:26;101061.00;;;17.29;100.00
44140;BME280;29803;51.048;4.686;2023-04-21T11:44:57;101065.97;;;17.13;100.00
44140;BME280;29803;51.048;4.686;2023-04-21T11:47:27;101058.84;;;17.05;100.00
44140;BME280;29803;51.048;4.686;2023-04-21T11:50:00;101050.94;;;17.10;100.00
44140;BME280;29803;51.048;4.686;2023-04-21T11:52:33;101049.22;;;16.89;100.00
44140;BME280;29803;51.048;4.686;2023-04-21T11:55:13;101039.09;;;17.24;100.00
44140;BME280;29803;51.048;4.686;2023-04-21T11:57:51;101035.72;;;17.16;100.00
44140;BME280;29803;51.048;4.686;2023-04-21T12:00:22;101043.09;;;16.74;100.00
44140;BME280;29803;51.048;4.686;2023-04-21T12:02:53;101046.50;;;16.89;100.00
44140;BME280;29803;51.048;4.686;2023-04-21T12:05:33;101054.09;;;17.14;100.00
44140;BME280;29803;51.048;4.686;2023-04-21T12:08:04;101046.84;;;17.41;100.00
44140;BME280;29803;51.048;4.686;2023-04-21T12:10:35;101041.84;;;17.38;100.00
44140;BME280;29803;51.048;4.686;2023-04-21T12:13:06;101032.22;;;17.28;100.00
44140;BME280;29803;51.048;4.686;2023-04-21T12:15:36;101036.19;;;17.32;100.00
44140;BME280;29803;51.048;4.686;2023-04-21T12:18:11;101037.22;;;17.31;100.00
44140;BME280;29803;51.048;4.686;2023-04-21T12:21:02;101036.19;;;17.32;100.00
44140;BME280;29803;51.048;4.686;2023-04-21T12:23:33;101032.00;;;17.23;100.00
44140;BME280;29803;51.048;4.686;2023-04-21T12:26:03;101030.34;;;17.22;100.00
44140;BME280;29803;51.048;4.686;2023-04-21T12:28:34;101038.91;;;17.39;100.00
44140;BME280;29803;51.048;4.686;2023-04-21T12:31:05;101028.50;;;17.43;100.00
44140;BME280;29803;51.048;4.686;2023-04-21T12:33:36;101026.19;;;17.40;100.00
44140;BME280;29803;51.048;4.686;2023-04-21T12:36:06;101021.19;;;17.50;100.00
44140;BME280;29803;51.048;4.686;2023-04-21T12:38:37;101032.94;;;16.89;97.31
44140;BME280;29803;51.048;4.686;2023-04-21T12:41:08;101033.38;;;16.93;100.00
44140;BME280;29803;51.048;4.686;2023-04-21T12:43:38;101035.50;;;17.04;100.00
44140;BME280;29803;51.048;4.686;2023-04-21T12:46:09;101027.41;;;17.17;98.80
44140;BME280;29803;51.048;4.686;2023-04-21T12:48:39;101017.22;;;17.39;100.00
44140;BME280;29803;51.048;4.686;2023-04-21T12:51:10;101022.03;;;17.64;94.73
44140;BME280;29803;51.048;4.686;2023-04-21T12:53:40;101015.59;;;17.84;98.29
44140;BME280;29803;51.048;4.686;2023-04-21T12:56:11;101018.66;;;18.21;97.11
44140;BME280;29803;51.048;4.686;2023-04-21T12:58:41;101012.84;;;18.04;82.31
44140;BME280;29803;51.048;4.686;2023-04-21T13:01:12;101016.78;;;18.22;81.45
44140;BME280;29803;51.048;4.686;2023-04-21T13:03:44;101006.09;;;18.27;74.30
44140;BME280;29803;51.048;4.686;2023-04-21T13:06:16;101001.09;;;18.30;78.98
44140;BME280;29803;51.048;4.686;2023-04-21T13:08:47;100998.47;;;17.97;79.35
44140;BME280;29803;51.048;4.686;2023-04-21T13:11:17;100991.78;;;17.86;77.87
44140;BME280;29803;51.048;4.686;2023-04-21T13:13:48;100983.44;;;17.81;77.60
44140;BME280;29803;51.048;4.686;2023-04-21T13:16:18;100982.78;;;17.99;87.21
44140;BME280;29803;51.048;4.686;2023-04-21T13:18:49;100977.38;;;17.99;86.99
44140;BME280;29803;51.048;4.686;2023-04-21T13:21:19;100973.34;;;18.15;79.51
44140;BME280;29803;51.048;4.686;2023-04-21T13:23:50;100966.34;;;18.46;80.72